Guapiles, Costa Rica
Current Conditions -  °F | °C
As of 6:00 AM on Thursday 30 Oct 2014 (Local Time) from MRPV Reporting Station
Clear Clear  
Wind Chill: 68°   Ceiling: Unl
Heat Index: 68°   Visibility: 6mi
Dew Point: 59°   Wind: 9mph
Humidity: 73%   Direction: 120°ESE
Pressure: 29.96"   Gusts: NA
Location:  10.21°N, 83.79°W
Report Text: MRPV 301200Z 12008KT CAVOK 20/15 A2996 NOSIG
Loading
Personal Weather Stations






























Interactive Weather Map
Tropical Storm Tracking
New forecast layout! Learn more

10-Day Weather Forecast

Advertisements
Track Severe Weather on mobile